createdAt,value
2022-10-29T00:00:28.586Z,12.60
2022-10-29T00:03:02.613Z,12.70
2022-10-29T00:05:37.231Z,12.70
2022-10-29T00:08:10.742Z,12.60
2022-10-29T00:10:47.473Z,12.60
2022-10-29T00:13:22.967Z,12.60
2022-10-29T00:15:56.956Z,12.60
2022-10-29T00:18:31.114Z,12.60
2022-10-29T00:21:04.983Z,12.60
2022-10-29T00:23:38.548Z,12.60
2022-10-29T00:26:15.592Z,12.60
2022-10-29T00:28:49.489Z,12.60
2022-10-29T00:31:24.573Z,12.60
2022-10-29T00:33:58.766Z,12.50
2022-10-29T00:36:32.842Z,12.50
2022-10-29T00:39:07.151Z,12.50
2022-10-29T00:41:43.181Z,12.50
2022-10-29T00:44:27.951Z,12.50
2022-10-29T00:47:02.977Z,12.40
2022-10-29T00:49:36.570Z,12.40
2022-10-29T00:52:10.648Z,12.40
2022-10-29T00:54:45.115Z,12.40
2022-10-29T00:57:21.947Z,12.40
2022-10-29T00:59:55.530Z,12.40
2022-10-29T01:02:29.974Z,12.40
2022-10-29T01:05:03.403Z,12.40
2022-10-29T01:07:37.633Z,12.40
2022-10-29T01:10:12.143Z,12.40
2022-10-29T01:12:58.659Z,12.40
2022-10-29T01:15:35.036Z,12.50
2022-10-29T01:18:10.716Z,12.50
2022-10-29T01:20:54.830Z,12.50
2022-10-29T01:23:35.897Z,12.50
2022-10-29T01:26:14.940Z,12.50
2022-10-29T01:28:56.854Z,12.50
2022-10-29T01:31:34.848Z,12.50
2022-10-29T01:34:10.515Z,12.50
2022-10-29T01:36:45.108Z,12.50
2022-10-29T01:39:20.840Z,12.50
2022-10-29T01:41:54.934Z,12.50
2022-10-29T01:44:32.121Z,12.50
2022-10-29T01:47:08.292Z,12.50
2022-10-29T01:49:40.916Z,12.50
2022-10-29T01:52:15.017Z,12.50
2022-10-29T01:54:48.949Z,12.50
2022-10-29T01:57:28.056Z,12.50
2022-10-29T02:00:01.961Z,12.50
2022-10-29T02:02:52.452Z,12.40
2022-10-29T02:05:29.658Z,12.50
2022-10-29T02:08:06.091Z,12.50
2022-10-29T02:10:41.338Z,12.50
2022-10-29T02:13:13.595Z,12.50
2022-10-29T02:15:48.495Z,12.50
2022-10-29T02:18:25.558Z,12.50
2022-10-29T02:20:59.804Z,12.50
2022-10-29T02:23:33.429Z,12.50
2022-10-29T02:26:07.722Z,12.50
2022-10-29T02:28:41.475Z,12.50
2022-10-29T02:31:15.901Z,12.50
2022-10-29T02:33:52.246Z,12.40
2022-10-29T02:36:25.782Z,12.40
2022-10-29T02:38:59.465Z,12.40
2022-10-29T02:41:33.573Z,12.40
2022-10-29T02:44:08.021Z,12.40
2022-10-29T02:46:42.639Z,12.30
2022-10-29T02:49:19.740Z,12.30
2022-10-29T02:51:53.662Z,12.30
2022-10-29T02:54:27.649Z,12.30
2022-10-29T02:57:01.773Z,12.30
2022-10-29T02:59:35.735Z,12.30
2022-10-29T03:02:09.767Z,12.30
2022-10-29T03:04:47.161Z,12.40
2022-10-29T03:07:26.796Z,12.40
2022-10-29T03:10:00.810Z,12.40
2022-10-29T03:12:34.601Z,12.40
2022-10-29T03:15:09.710Z,12.40
2022-10-29T03:17:44.125Z,12.40
2022-10-29T03:20:20.769Z,12.40
2022-10-29T03:22:54.651Z,12.40
2022-10-29T03:25:32.350Z,12.40
2022-10-29T03:28:04.671Z,12.40
2022-10-29T03:30:36.618Z,12.40
2022-10-29T03:33:10.792Z,12.30
2022-10-29T03:35:47.298Z,12.30
2022-10-29T03:38:19.858Z,12.30
2022-10-29T03:40:53.662Z,12.20
2022-10-29T03:43:29.495Z,12.20
2022-10-29T03:46:01.571Z,12.20
2022-10-29T03:48:35.767Z,12.20
2022-10-29T03:51:12.842Z,12.20
2022-10-29T03:53:46.610Z,12.20
2022-10-29T03:56:20.838Z,12.10
2022-10-29T03:58:54.532Z,12.10
2022-10-29T04:01:28.923Z,12.00
2022-10-29T04:04:03.324Z,12.00
2022-10-29T04:06:39.466Z,12.00
2022-10-29T04:09:11.607Z,11.90
2022-10-29T04:11:45.845Z,11.90
2022-10-29T04:14:19.591Z,11.90
2022-10-29T04:16:53.621Z,11.80
2022-10-29T04:19:27.741Z,11.80
2022-10-29T04:30:46.394Z,11.60
2022-10-29T04:33:18.550Z,11.60
2022-10-29T04:35:56.038Z,11.50
2022-10-29T04:38:33.364Z,11.50
2022-10-29T04:41:10.400Z,11.40
2022-10-29T04:43:42.539Z,11.40
2022-10-29T04:46:16.866Z,11.30
2022-10-29T04:48:50.556Z,11.30
2022-10-29T04:51:25.009Z,11.30
2022-10-29T04:54:01.622Z,11.20
2022-10-29T04:56:36.206Z,11.10
2022-10-29T04:59:09.951Z,11.10
2022-10-29T05:01:44.133Z,11.10
2022-10-29T05:04:17.672Z,11.10
2022-10-29T05:06:51.600Z,11.10
2022-10-29T05:09:28.412Z,11.10
2022-10-29T05:12:00.484Z,11.10
2022-10-29T05:14:34.583Z,11.10
2022-10-29T05:17:09.186Z,11.00
2022-10-29T05:19:40.687Z,11.00
2022-10-29T05:22:15.240Z,11.00
2022-10-29T05:24:51.934Z,10.90
2022-10-29T05:27:25.606Z,10.90
2022-10-29T05:30:00.114Z,10.90
2022-10-29T05:32:37.096Z,10.90
2022-10-29T05:35:10.814Z,10.90
2022-10-29T05:37:44.701Z,10.80
2022-10-29T05:40:21.415Z,10.80
2022-10-29T05:42:54.133Z,10.80
2022-10-29T05:45:27.874Z,10.70
2022-10-29T05:48:01.871Z,10.70
2022-10-29T05:50:35.804Z,10.70
2022-10-29T05:53:11.216Z,10.70
2022-10-29T05:55:48.620Z,10.70
2022-10-29T05:58:23.384Z,10.80
2022-10-29T06:00:56.327Z,10.80
2022-10-29T06:03:32.221Z,10.80
2022-10-29T06:06:06.798Z,10.90
2022-10-29T06:08:41.510Z,11.00
2022-10-29T06:11:18.878Z,11.20
2022-10-29T06:13:53.310Z,11.40
2022-10-29T06:16:27.160Z,11.50
2022-10-29T06:19:07.130Z,11.60
2022-10-29T06:21:41.131Z,11.60
2022-10-29T06:24:14.761Z,11.70
2022-10-29T06:26:51.450Z,11.80
2022-10-29T06:29:24.010Z,11.80
2022-10-29T06:31:57.739Z,11.90
2022-10-29T06:34:31.814Z,12.00
2022-10-29T06:37:06.178Z,12.00
2022-10-29T06:39:39.759Z,12.10
2022-10-29T06:42:16.769Z,12.30
2022-10-29T06:44:50.951Z,12.40
2022-10-29T06:47:24.794Z,12.50
2022-10-29T06:49:58.800Z,12.50
2022-10-29T06:52:33.667Z,12.60
2022-10-29T06:55:08.498Z,12.70
2022-10-29T06:57:45.413Z,12.70
2022-10-29T07:00:17.883Z,12.80
2022-10-29T07:02:51.922Z,12.90
2022-10-29T07:05:26.187Z,13.00
2022-10-29T07:07:59.898Z,13.20
2022-10-29T07:10:33.899Z,13.50
2022-10-29T07:13:11.312Z,13.90
2022-10-29T07:15:43.809Z,14.30
2022-10-29T07:18:17.746Z,14.70
2022-10-29T07:20:52.061Z,15.20
2022-10-29T07:23:25.629Z,15.70
2022-10-29T07:25:59.968Z,16.10
2022-10-29T07:28:37.561Z,16.30
2022-10-29T07:31:09.131Z,16.40
2022-10-29T07:33:42.925Z,16.40
2022-10-29T07:36:17.064Z,16.30
2022-10-29T07:38:50.707Z,16.30
2022-10-29T07:41:24.928Z,16.30
2022-10-29T07:43:59.453Z,16.20
2022-10-29T07:46:32.318Z,16.20
2022-10-29T07:49:06.572Z,16.20
2022-10-29T07:51:40.656Z,16.10
2022-10-29T07:54:14.952Z,16.10
2022-10-29T07:56:48.941Z,16.10
2022-10-29T07:59:25.769Z,16.20
2022-10-29T08:01:57.882Z,16.30
2022-10-29T08:04:29.654Z,16.60
2022-10-29T08:07:04.079Z,17.00
2022-10-29T08:09:37.918Z,17.30
2022-10-29T08:12:10.177Z,17.40
2022-10-29T08:14:45.858Z,17.40
2022-10-29T08:17:19.880Z,17.40
2022-10-29T08:19:53.886Z,17.40
2022-10-29T08:22:27.933Z,17.30
2022-10-29T08:25:01.940Z,17.30
2022-10-29T08:27:36.245Z,17.30
2022-10-29T08:30:14.290Z,17.40
2022-10-29T08:32:48.247Z,17.40
2022-10-29T08:35:22.400Z,17.50
2022-10-29T08:37:55.307Z,17.60
2022-10-29T08:40:32.203Z,17.70
2022-10-29T08:43:14.119Z,17.90
2022-10-29T08:45:51.106Z,18.10
2022-10-29T08:48:29.816Z,18.50
2022-10-29T08:51:04.457Z,18.90
2022-10-29T08:53:38.689Z,19.30
2022-10-29T08:56:15.007Z,19.40
2022-10-29T08:58:48.346Z,19.40
2022-10-29T09:01:23.190Z,19.40
2022-10-29T09:03:54.773Z,19.40
2022-10-29T09:06:30.891Z,19.60
2022-10-29T09:09:09.285Z,19.80
2022-10-29T09:11:48.611Z,19.90
2022-10-29T09:14:28.636Z,20.20
2022-10-29T09:17:03.549Z,20.30
2022-10-29T09:19:39.107Z,20.70
2022-10-29T09:22:13.008Z,21.00
2022-10-29T09:24:48.478Z,21.20
2022-10-29T09:27:20.525Z,21.50
2022-10-29T09:30:05.448Z,21.70
2022-10-29T09:32:42.260Z,21.80
2022-10-29T09:35:17.586Z,21.90
2022-10-29T09:37:49.793Z,22.10
2022-10-29T09:40:26.448Z,22.10
2022-10-29T09:43:00.879Z,22.30
2022-10-29T09:45:38.354Z,22.40
2022-10-29T09:48:17.005Z,22.40
2022-10-29T09:50:51.769Z,22.40
2022-10-29T09:53:23.890Z,22.40
2022-10-29T09:55:57.932Z,22.50
2022-10-29T09:58:31.938Z,22.40
2022-10-29T10:01:04.326Z,22.40
2022-10-29T10:03:42.199Z,22.30
2022-10-29T10:06:14.215Z,22.20
2022-10-29T10:09:01.309Z,22.00
2022-10-29T10:11:34.632Z,21.90
2022-10-29T10:14:08.755Z,21.80
2022-10-29T10:16:45.074Z,21.70
2022-10-29T10:19:28.426Z,21.60
2022-10-29T10:22:04.767Z,21.50
2022-10-29T10:24:36.615Z,21.40
2022-10-29T10:27:24.638Z,21.50
2022-10-29T10:30:13.869Z,21.50
2022-10-29T10:32:47.719Z,21.60
2022-10-29T10:35:40.149Z,21.70
2022-10-29T10:38:15.546Z,21.80
2022-10-29T10:40:46.605Z,21.80
2022-10-29T10:43:21.002Z,21.80
2022-10-29T10:45:55.224Z,21.90
2022-10-29T10:48:33.597Z,21.90
2022-10-29T10:51:29.831Z,21.90
2022-10-29T10:54:07.040Z,21.90
2022-10-29T10:56:38.903Z,21.90
2022-10-29T10:59:14.619Z,21.90
2022-10-29T11:01:49.772Z,21.90
2022-10-29T11:04:24.243Z,22.00
2022-10-29T11:06:58.816Z,22.00
2022-10-29T11:09:34.939Z,22.00
2022-10-29T11:12:08.825Z,22.00
2022-10-29T11:14:45.151Z,21.90
2022-10-29T11:17:23.240Z,21.90
2022-10-29T11:19:57.801Z,21.80
2022-10-29T11:22:32.749Z,21.80
2022-10-29T11:25:11.803Z,21.80
2022-10-29T11:27:48.809Z,21.80
2022-10-29T11:30:23.043Z,21.80
2022-10-29T11:32:59.768Z,21.70
2022-10-29T11:35:36.125Z,21.70
2022-10-29T11:38:12.552Z,21.60
2022-10-29T11:40:48.871Z,21.60
2022-10-29T11:43:23.214Z,21.60
2022-10-29T11:46:01.316Z,21.60
2022-10-29T11:48:38.494Z,21.50
2022-10-29T11:51:11.141Z,21.40
2022-10-29T11:53:57.805Z,21.40
2022-10-29T11:56:49.777Z,21.40
2022-10-29T11:59:33.238Z,21.30
2022-10-29T12:02:07.990Z,21.40
2022-10-29T12:04:40.657Z,21.40
2022-10-29T12:07:17.109Z,21.40
2022-10-29T12:10:08.787Z,21.40
2022-10-29T12:12:39.598Z,21.40
2022-10-29T12:15:19.862Z,21.40
2022-10-29T12:17:56.616Z,21.40
2022-10-29T12:20:31.966Z,21.40
2022-10-29T12:23:12.030Z,21.40
2022-10-29T12:25:53.235Z,21.40
2022-10-29T12:28:28.510Z,21.50
2022-10-29T12:31:10.052Z,21.50
2022-10-29T12:33:45.523Z,21.50
2022-10-29T12:36:22.764Z,21.40
2022-10-29T12:38:55.982Z,21.40
2022-10-29T12:41:30.231Z,21.40
2022-10-29T12:44:02.546Z,21.30
2022-10-29T12:46:38.260Z,21.30
2022-10-29T12:49:11.311Z,21.20
2022-10-29T12:51:45.751Z,21.20
2022-10-29T12:54:20.251Z,21.20
2022-10-29T12:56:53.997Z,21.30
2022-10-29T12:59:35.026Z,21.20
2022-10-29T13:02:37.147Z,21.30
2022-10-29T13:05:32.753Z,21.30
2022-10-29T13:08:22.190Z,21.30
2022-10-29T13:10:58.845Z,21.30
2022-10-29T13:13:41.279Z,21.30
2022-10-29T13:16:17.070Z,21.30
2022-10-29T13:19:05.903Z,21.30
2022-10-29T13:21:53.273Z,21.20
2022-10-29T13:24:26.980Z,21.20
2022-10-29T13:27:18.680Z,21.20
2022-10-29T13:30:13.655Z,21.20
2022-10-29T13:32:48.393Z,21.20
2022-10-29T13:35:36.954Z,21.20
2022-10-29T13:38:21.560Z,21.20
2022-10-29T13:41:07.725Z,21.20
2022-10-29T13:43:42.079Z,21.10
2022-10-29T13:46:31.543Z,21.10
2022-10-29T13:49:06.503Z,21.10
2022-10-29T13:51:41.894Z,21.00
2022-10-29T13:54:17.463Z,21.00
2022-10-29T13:56:49.709Z,21.00
2022-10-29T13:59:25.665Z,20.90
2022-10-29T14:02:15.008Z,20.90
2022-10-29T14:04:52.008Z,20.90
2022-10-29T14:07:27.212Z,20.80
2022-10-29T14:10:02.530Z,20.80
2022-10-29T14:12:38.437Z,20.80
2022-10-29T14:15:11.576Z,20.80
2022-10-29T14:17:44.117Z,20.70
2022-10-29T14:20:28.072Z,20.70
2022-10-29T14:23:01.997Z,20.60
2022-10-29T14:25:36.511Z,20.60
2022-10-29T14:28:20.524Z,20.60
2022-10-29T14:31:01.770Z,20.60
2022-10-29T14:33:36.492Z,20.50
2022-10-29T14:36:15.652Z,20.50
2022-10-29T14:38:51.001Z,20.50
2022-10-29T14:41:24.660Z,20.40
2022-10-29T14:44:03.625Z,20.40
2022-10-29T14:46:35.809Z,20.40
2022-10-29T14:49:15.191Z,20.30
2022-10-29T14:51:54.097Z,20.30
2022-10-29T14:54:28.311Z,20.30
2022-10-29T14:57:00.626Z,20.20
2022-10-29T14:59:33.121Z,20.20
2022-10-29T15:02:24.250Z,20.10
2022-10-29T15:05:01.885Z,20.10
2022-10-29T15:07:42.532Z,20.10
2022-10-29T15:10:21.778Z,20.00
2022-10-29T15:12:55.756Z,20.00
2022-10-29T15:15:30.638Z,20.00
2022-10-29T15:18:03.431Z,19.90
2022-10-29T15:20:38.714Z,19.90
2022-10-29T15:23:20.764Z,19.80
2022-10-29T15:25:55.684Z,19.70
2022-10-29T15:28:29.991Z,19.70
2022-10-29T15:31:04.503Z,19.60
2022-10-29T15:33:37.270Z,19.60
2022-10-29T15:36:11.082Z,19.50
2022-10-29T15:38:48.070Z,19.40
2022-10-29T15:41:50.807Z,19.30
2022-10-29T15:44:33.160Z,19.30
2022-10-29T15:47:20.028Z,19.20
2022-10-29T15:49:53.411Z,19.10
2022-10-29T15:52:27.331Z,19.10
2022-10-29T15:55:00.663Z,19.00
2022-10-29T15:57:37.799Z,19.00
2022-10-29T16:00:13.804Z,18.90
2022-10-29T16:02:47.641Z,18.80
2022-10-29T16:05:19.846Z,18.80
2022-10-29T16:07:53.702Z,18.70
2022-10-29T16:10:27.711Z,18.60
2022-10-29T16:13:04.348Z,18.60
2022-10-29T16:15:40.266Z,18.50
2022-10-29T16:18:17.706Z,18.50
2022-10-29T16:20:51.750Z,18.40
2022-10-29T16:23:25.458Z,18.40
2022-10-29T16:25:58.681Z,18.40
2022-10-29T16:28:35.411Z,18.30
2022-10-29T16:31:08.861Z,18.30
2022-10-29T16:33:42.749Z,18.30
2022-10-29T16:36:16.713Z,18.20
2022-10-29T16:38:48.693Z,18.20
2022-10-29T16:41:22.865Z,18.10
2022-10-29T16:43:59.338Z,18.10
2022-10-29T16:46:32.698Z,18.10
2022-10-29T16:49:06.686Z,18.10
2022-10-29T16:51:40.726Z,18.00
2022-10-29T16:54:14.785Z,18.00
2022-10-29T16:56:50.595Z,17.90
2022-10-29T16:59:25.346Z,17.90
2022-10-29T17:01:58.712Z,17.90
2022-10-29T17:04:30.871Z,17.90
2022-10-29T17:07:04.717Z,17.90
2022-10-29T17:09:38.885Z,17.90
2022-10-29T17:12:12.783Z,17.90
2022-10-29T17:14:49.331Z,17.90
2022-10-29T17:17:22.709Z,17.90
2022-10-29T17:19:56.700Z,17.80
2022-10-29T17:22:27.772Z,17.80
2022-10-29T17:25:01.726Z,17.80
2022-10-29T17:27:35.776Z,17.80
2022-10-29T17:30:13.172Z,17.80
2022-10-29T17:32:46.839Z,17.80
2022-10-29T17:35:20.738Z,17.80
2022-10-29T17:37:51.717Z,17.80
2022-10-29T17:40:25.700Z,17.80
2022-10-29T17:43:00.065Z,17.80
2022-10-29T17:45:37.238Z,17.80
2022-10-29T17:48:10.793Z,17.70
2022-10-29T17:50:45.184Z,17.80
2022-10-29T17:53:18.705Z,17.80
2022-10-29T17:55:49.796Z,17.70
2022-10-29T17:58:23.854Z,17.70
2022-10-29T18:01:05.081Z,17.70
2022-10-29T18:03:38.796Z,17.70
2022-10-29T18:06:13.587Z,17.70
2022-10-29T18:08:46.030Z,17.70
2022-10-29T18:11:20.492Z,17.70
2022-10-29T18:13:53.815Z,17.70
2022-10-29T18:16:30.781Z,17.70
2022-10-29T18:19:04.714Z,17.70
2022-10-29T18:21:36.738Z,17.70
2022-10-29T18:24:11.233Z,17.70
2022-10-29T18:26:44.855Z,17.70
2022-10-29T18:29:18.766Z,17.70
2022-10-29T18:31:55.384Z,17.60
2022-10-29T18:34:28.531Z,17.60
2022-10-29T18:37:01.826Z,17.60
2022-10-29T18:39:35.847Z,17.60
2022-10-29T18:42:09.783Z,17.60
2022-10-29T18:44:41.156Z,17.50
2022-10-29T18:47:17.404Z,17.60
2022-10-29T18:49:50.887Z,17.50
2022-10-29T18:52:24.746Z,17.50
2022-10-29T18:54:56.907Z,17.50
2022-10-29T18:57:30.939Z,17.50
2022-10-29T19:00:04.828Z,17.50
2022-10-29T19:02:41.503Z,17.50
2022-10-29T19:05:13.745Z,17.50
2022-10-29T19:07:47.836Z,17.50
2022-10-29T19:10:21.746Z,17.40
2022-10-29T19:12:55.753Z,17.40
2022-10-29T19:15:29.764Z,17.40
2022-10-29T19:18:06.440Z,17.40
2022-10-29T19:20:39.999Z,17.40
2022-10-29T19:23:13.922Z,17.40
2022-10-29T19:25:47.846Z,17.30
2022-10-29T19:28:21.728Z,17.30
2022-10-29T19:30:55.819Z,17.30
2022-10-29T19:33:32.335Z,17.30
2022-10-29T19:36:05.890Z,17.20
2022-10-29T19:38:39.807Z,17.20
2022-10-29T19:41:13.879Z,17.20
2022-10-29T19:43:47.901Z,17.10
2022-10-29T19:46:22.953Z,17.10
2022-10-29T19:48:59.542Z,17.10
2022-10-29T19:51:32.759Z,17.00
2022-10-29T19:54:08.206Z,17.00
2022-10-29T19:56:41.820Z,17.00
2022-10-29T19:59:13.800Z,16.90
2022-10-29T20:01:48.833Z,16.90
2022-10-29T20:04:22.561Z,16.80
2022-10-29T20:06:57.498Z,16.80
2022-10-29T20:09:30.796Z,16.70
2022-10-29T20:12:04.818Z,16.70
2022-10-29T20:14:35.827Z,16.60
2022-10-29T20:17:09.695Z,16.60
2022-10-29T20:19:41.880Z,16.60
2022-10-29T20:22:18.658Z,16.50
2022-10-29T20:24:52.829Z,16.50
2022-10-29T20:27:27.143Z,16.50
2022-10-29T20:30:00.940Z,16.40
2022-10-29T20:32:34.901Z,16.40
2022-10-29T20:38:40.734Z,16.40
2022-10-29T20:41:17.467Z,16.40
2022-10-29T20:43:48.854Z,16.40
2022-10-29T20:46:22.858Z,16.40
2022-10-29T20:48:56.886Z,16.30
2022-10-29T20:51:31.073Z,16.30
2022-10-29T20:54:04.814Z,16.30
2022-10-29T20:56:41.433Z,16.30
2022-10-29T20:59:14.737Z,16.20
2022-10-29T21:01:48.968Z,16.20
2022-10-29T21:04:22.800Z,16.20
2022-10-29T21:06:56.824Z,16.20
2022-10-29T21:09:30.842Z,16.10
2022-10-29T21:12:04.474Z,16.10
2022-10-29T21:14:37.823Z,16.10
2022-10-29T21:17:11.856Z,16.00
2022-10-29T21:19:45.794Z,16.00
2022-10-29T21:22:20.003Z,16.00
2022-10-29T21:24:53.749Z,16.00
2022-10-29T21:27:28.459Z,16.00
2022-10-29T21:30:01.783Z,16.00
2022-10-29T21:32:35.831Z,16.00
2022-10-29T21:35:10.475Z,15.90
2022-10-29T21:37:41.831Z,15.90
2022-10-29T21:40:15.954Z,15.90
2022-10-29T21:42:52.401Z,15.80
2022-10-29T21:45:23.950Z,15.80
2022-10-29T21:47:57.797Z,15.80
2022-10-29T21:50:31.763Z,15.80
2022-10-29T21:53:05.870Z,15.70
2022-10-29T21:55:39.733Z,15.70
2022-10-29T21:58:14.400Z,15.60
2022-10-29T22:00:47.771Z,15.60
2022-10-29T22:03:21.792Z,15.50
2022-10-29T22:05:55.747Z,15.50
2022-10-29T22:08:27.851Z,15.40
2022-10-29T22:11:01.814Z,15.40
2022-10-29T22:13:38.471Z,15.30
2022-10-29T22:16:11.838Z,15.20
2022-10-29T22:18:46.473Z,15.20
2022-10-29T22:21:20.202Z,15.10
2022-10-29T22:23:53.523Z,15.10
2022-10-29T22:26:27.357Z,14.90
2022-10-29T22:29:03.378Z,14.90
2022-10-29T22:31:36.855Z,14.80
2022-10-29T22:34:10.774Z,14.80
2022-10-29T22:36:44.850Z,14.70
2022-10-29T22:39:18.809Z,14.70
2022-10-29T22:41:52.659Z,14.70
2022-10-29T22:44:27.364Z,14.70
2022-10-29T22:47:00.812Z,14.70
2022-10-29T22:49:34.797Z,14.70
2022-10-29T22:52:08.898Z,14.70
2022-10-29T22:54:42.838Z,14.60
2022-10-29T22:57:16.836Z,14.60
2022-10-29T22:59:53.448Z,14.60
2022-10-29T23:02:27.068Z,14.50
2022-10-29T23:05:01.040Z,14.50
2022-10-29T23:07:34.795Z,14.50
2022-10-29T23:10:09.257Z,14.50
2022-10-29T23:12:42.756Z,14.40
2022-10-29T23:15:19.654Z,14.40
2022-10-29T23:17:54.797Z,14.40
2022-10-29T23:20:28.942Z,14.30
2022-10-29T23:23:02.851Z,14.30
2022-10-29T23:25:36.791Z,14.30
2022-10-29T23:28:05.782Z,14.20
2022-10-29T23:30:42.430Z,14.20
2022-10-29T23:33:15.787Z,14.10
2022-10-29T23:35:49.793Z,14.10
2022-10-29T23:38:23.754Z,14.10
2022-10-29T23:40:55.825Z,14.00
2022-10-29T23:43:29.782Z,14.10
2022-10-29T23:46:06.457Z,14.00
2022-10-29T23:48:39.817Z,14.00
2022-10-29T23:51:11.849Z,14.00
2022-10-29T23:53:45.750Z,13.90
2022-10-29T23:56:17.806Z,13.90
2022-10-29T23:58:51.753Z,13.90
